createdAt,value
2019-05-06T00:03:51.117Z,5.20
2019-05-06T00:06:26.419Z,5.10
2019-05-06T00:09:14.590Z,5.10
2019-05-06T00:12:20.841Z,5.10
2019-05-06T00:15:10.656Z,5.10
2019-05-06T00:17:44.599Z,5.10
2019-05-06T00:20:20.072Z,5.10
2019-05-06T00:22:54.107Z,5.10
2019-05-06T00:26:00.647Z,5.10
2019-05-06T00:28:41.975Z,5.10
2019-05-06T00:31:27.868Z,5.10
2019-05-06T00:34:20.826Z,5.10
2019-05-06T00:37:17.662Z,5.10
2019-05-06T00:40:16.969Z,5.10
2019-05-06T00:43:14.073Z,5.10
2019-05-06T00:53:19.272Z,5.00
2019-05-06T00:56:13.975Z,4.90
2019-05-06T00:59:23.701Z,4.90
2019-05-06T01:02:34.613Z,4.90
2019-05-06T01:08:29.310Z,4.80
2019-05-06T01:11:44.802Z,4.80
2019-05-06T01:41:24.371Z,4.70
2019-05-06T01:43:56.104Z,4.60
2019-05-06T01:46:49.490Z,4.60
2019-05-06T01:49:24.627Z,4.60
2019-05-06T01:52:05.620Z,4.60
2019-05-06T01:55:23.938Z,4.60
2019-05-06T02:00:43.611Z,4.60
2019-05-06T02:03:26.132Z,4.60
2019-05-06T02:08:57.798Z,4.70
2019-05-06T02:11:28.160Z,4.60
2019-05-06T02:14:06.783Z,4.60
2019-05-06T02:16:37.160Z,4.60
2019-05-06T02:19:07.409Z,4.60
2019-05-06T02:22:08.051Z,4.60
2019-05-06T02:24:44.145Z,4.60
2019-05-06T02:27:14.336Z,4.60
2019-05-06T02:29:50.071Z,4.60
2019-05-06T02:32:31.398Z,4.60
2019-05-06T02:35:08.572Z,4.70
2019-05-06T02:37:39.921Z,4.60
2019-05-06T02:40:20.220Z,4.70
2019-05-06T02:42:54.549Z,4.70
2019-05-06T02:45:24.161Z,4.70
2019-05-06T02:48:22.727Z,4.70
2019-05-06T02:51:18.546Z,4.70
2019-05-06T02:53:53.889Z,4.70
2019-05-06T02:56:23.990Z,4.70
2019-05-06T02:58:54.373Z,4.70
2019-05-06T03:01:24.594Z,4.70
2019-05-06T03:03:54.969Z,4.70
2019-05-06T03:06:26.865Z,4.70
2019-05-06T03:08:57.318Z,4.70
2019-05-06T03:11:27.769Z,4.70
2019-05-06T03:13:59.356Z,4.70
2019-05-06T03:20:19.372Z,4.80
2019-05-06T03:23:03.720Z,4.80
2019-05-06T03:25:35.663Z,4.80
2019-05-06T03:28:08.403Z,4.80
2019-05-06T03:30:45.640Z,4.80
2019-05-06T03:33:37.129Z,4.80
2019-05-06T03:36:00.548Z,4.90
2019-05-06T03:38:19.140Z,4.90
2019-05-06T03:40:50.052Z,4.90
2019-05-06T03:43:23.315Z,4.90
2019-05-06T03:46:09.420Z,4.90
2019-05-06T03:48:43.855Z,4.90
2019-05-06T03:51:13.537Z,4.80
2019-05-06T03:53:44.619Z,4.80
2019-05-06T03:56:19.692Z,4.80
2019-05-06T03:58:49.552Z,4.80
2019-05-06T04:01:23.638Z,4.90
2019-05-06T04:03:56.038Z,4.90
2019-05-06T04:06:24.283Z,4.90
2019-05-06T04:08:54.897Z,4.90
2019-05-06T04:11:25.422Z,4.90
2019-05-06T04:13:56.226Z,4.80
2019-05-06T04:16:45.232Z,4.80
2019-05-06T04:19:28.047Z,4.90
2019-05-06T04:22:16.580Z,4.90
2019-05-06T04:24:56.438Z,4.90
2019-05-06T04:27:36.454Z,4.90
2019-05-06T04:30:06.777Z,4.90
2019-05-06T04:32:36.880Z,4.90
2019-05-06T04:35:06.875Z,4.90
2019-05-06T04:37:37.017Z,4.90
2019-05-06T04:40:07.754Z,4.90
2019-05-06T04:42:38.142Z,5.00
2019-05-06T04:45:08.313Z,4.90
2019-05-06T04:47:38.367Z,5.00
2019-05-06T04:50:08.952Z,5.00
2019-05-06T04:52:38.813Z,5.00
2019-05-06T04:55:08.864Z,5.10
2019-05-06T04:57:39.652Z,5.10
2019-05-06T05:00:12.775Z,5.00
2019-05-06T05:02:43.019Z,5.10
2019-05-06T05:05:13.947Z,5.10
2019-05-06T05:07:43.989Z,5.10
2019-05-06T05:10:19.802Z,5.10
2019-05-06T05:13:09.444Z,5.10
2019-05-06T05:16:10.177Z,5.10
2019-05-06T05:18:44.194Z,5.10
2019-05-06T05:21:13.978Z,5.20
2019-05-06T05:23:43.893Z,5.20
2019-05-06T05:26:13.748Z,5.20
2019-05-06T05:28:43.701Z,5.20
2019-05-06T05:31:13.603Z,5.20
2019-05-06T05:33:43.779Z,5.30
2019-05-06T05:36:13.694Z,5.30
2019-05-06T05:38:43.885Z,5.30
2019-05-06T05:41:13.722Z,5.30
2019-05-06T05:44:02.761Z,5.40
2019-05-06T05:46:33.025Z,5.50
2019-05-06T05:49:12.873Z,5.50
2019-05-06T05:51:42.699Z,5.60
2019-05-06T05:54:12.566Z,5.60
2019-05-06T05:56:43.074Z,5.70
2019-05-06T05:59:12.930Z,5.70
2019-05-06T06:01:43.445Z,5.80
2019-05-06T06:04:14.504Z,5.80
2019-05-06T06:06:44.347Z,5.90
2019-05-06T06:09:14.147Z,5.90
2019-05-06T06:11:53.297Z,5.80
2019-05-06T06:14:56.057Z,5.90
2019-05-06T06:17:47.329Z,5.90
2019-05-06T06:20:35.818Z,6.00
2019-05-06T06:23:32.287Z,6.00
2019-05-06T06:26:03.962Z,6.00
2019-05-06T06:28:33.490Z,6.10
2019-05-06T06:31:33.962Z,6.10
2019-05-06T06:34:12.864Z,6.20
2019-05-06T06:37:10.056Z,6.40
2019-05-06T06:39:42.595Z,6.40
2019-05-06T06:42:12.750Z,6.40
2019-05-06T06:44:42.690Z,6.50
2019-05-06T06:47:13.096Z,6.50
2019-05-06T06:49:43.185Z,6.50
2019-05-06T06:52:14.883Z,6.60
2019-05-06T06:54:44.313Z,6.60
2019-05-06T06:57:34.442Z,6.60
2019-05-06T07:00:26.037Z,6.70
2019-05-06T07:03:17.338Z,6.80
2019-05-06T07:06:09.138Z,6.80
2019-05-06T07:08:38.955Z,6.80
2019-05-06T07:11:08.742Z,7.00
2019-05-06T07:13:42.901Z,7.10
2019-05-06T07:16:12.716Z,7.10
2019-05-06T07:18:42.759Z,7.20
2019-05-06T07:21:18.572Z,7.20
2019-05-06T07:23:48.384Z,7.30
2019-05-06T07:26:20.086Z,7.40
2019-05-06T07:28:49.923Z,7.50
2019-05-06T07:31:23.799Z,7.60
2019-05-06T07:33:52.217Z,7.80
2019-05-06T07:36:22.818Z,7.90
2019-05-06T07:38:53.080Z,8.00
2019-05-06T07:41:32.613Z,8.10
2019-05-06T07:44:25.268Z,8.20
2019-05-06T07:47:13.358Z,8.40
2019-05-06T07:49:43.385Z,8.60
2019-05-06T07:52:13.297Z,8.70
2019-05-06T07:54:43.381Z,8.70
2019-05-06T07:57:13.262Z,8.80
2019-05-06T07:59:43.082Z,8.80
2019-05-06T08:02:13.155Z,8.90
2019-05-06T08:04:45.878Z,9.00
2019-05-06T08:07:15.694Z,9.20
2019-05-06T08:09:48.455Z,9.30
2019-05-06T08:12:18.290Z,9.50
2019-05-06T08:14:48.176Z,9.60
2019-05-06T08:17:42.248Z,9.60
2019-05-06T08:20:14.935Z,9.60
2019-05-06T08:23:06.640Z,9.70
2019-05-06T08:25:54.322Z,9.80
2019-05-06T08:28:40.678Z,9.70
2019-05-06T08:31:03.436Z,9.60
2019-05-06T08:33:36.355Z,9.60
2019-05-06T08:36:14.805Z,9.60
2019-05-06T08:39:03.878Z,9.70
2019-05-06T08:41:36.382Z,9.80
2019-05-06T08:44:07.486Z,10.00
2019-05-06T08:46:37.555Z,10.10
2019-05-06T08:49:07.317Z,10.20
2019-05-06T08:51:45.691Z,10.20
2019-05-06T08:54:33.779Z,10.30
2019-05-06T08:57:06.334Z,10.40
2019-05-06T08:59:36.233Z,10.50
2019-05-06T09:02:07.874Z,10.50
2019-05-06T09:04:37.627Z,10.50
2019-05-06T09:07:07.438Z,10.60
2019-05-06T09:09:37.206Z,10.60
2019-05-06T09:12:10.085Z,10.70
2019-05-06T09:14:39.854Z,10.90
2019-05-06T09:17:12.061Z,11.00
2019-05-06T09:19:42.664Z,11.20
2019-05-06T09:22:12.971Z,11.20
2019-05-06T09:24:44.372Z,11.30
2019-05-06T09:27:18.887Z,11.40
2019-05-06T09:30:08.452Z,11.50
2019-05-06T09:32:42.897Z,11.70
2019-05-06T09:35:13.121Z,11.80
2019-05-06T09:37:43.114Z,11.80
2019-05-06T09:40:13.312Z,11.90
2019-05-06T09:42:43.174Z,12.10
2019-05-06T09:45:13.207Z,12.50
2019-05-06T09:48:12.868Z,12.80
2019-05-06T09:50:46.093Z,12.90
2019-05-06T09:53:23.779Z,12.90
2019-05-06T09:56:13.197Z,12.90
2019-05-06T09:58:44.442Z,13.00
2019-05-06T10:01:14.924Z,13.10
2019-05-06T10:03:47.058Z,13.30
2019-05-06T10:06:16.854Z,13.50
2019-05-06T10:08:47.500Z,13.20
2019-05-06T10:11:17.315Z,13.10
2019-05-06T10:13:47.310Z,13.00
2019-05-06T10:16:17.107Z,13.10
2019-05-06T10:18:49.507Z,13.20
2019-05-06T10:21:19.626Z,13.30
2019-05-06T10:23:49.391Z,13.40
2019-05-06T10:26:23.450Z,13.40
2019-05-06T10:29:02.419Z,13.40
2019-05-06T10:31:39.200Z,13.30
2019-05-06T10:34:14.071Z,13.30
2019-05-06T10:37:12.714Z,13.40
2019-05-06T10:39:37.524Z,13.60
2019-05-06T10:42:13.571Z,13.90
2019-05-06T10:45:22.424Z,14.00
2019-05-06T10:47:53.838Z,14.20
2019-05-06T10:50:23.751Z,14.40
2019-05-06T10:53:13.392Z,14.30
2019-05-06T10:55:50.358Z,14.20
2019-05-06T10:58:22.328Z,14.10
2019-05-06T11:00:56.328Z,14.20
2019-05-06T11:03:27.736Z,14.30
2019-05-06T11:05:57.627Z,14.30
2019-05-06T11:08:27.446Z,14.30
2019-05-06T11:11:11.124Z,14.30
2019-05-06T11:13:29.520Z,14.20
2019-05-06T11:15:59.295Z,14.20
2019-05-06T11:18:29.117Z,14.30
2019-05-06T11:21:03.508Z,14.40
2019-05-06T11:23:33.801Z,14.50
2019-05-06T11:26:06.863Z,14.40
2019-05-06T11:28:46.620Z,14.50
2019-05-06T11:31:33.531Z,14.70
2019-05-06T11:34:25.546Z,14.60
2019-05-06T11:37:15.031Z,14.70
2019-05-06T11:39:44.145Z,14.90
2019-05-06T11:42:27.582Z,14.90
2019-05-06T11:44:47.526Z,14.50
2019-05-06T11:47:18.905Z,14.30
2019-05-06T11:49:55.581Z,14.00
2019-05-06T11:52:23.651Z,13.70
2019-05-06T11:54:53.532Z,13.60
2019-05-06T11:57:23.390Z,13.30
2019-05-06T11:59:53.239Z,13.00
2019-05-06T12:02:26.583Z,12.90
2019-05-06T12:05:02.331Z,13.00
2019-05-06T12:07:33.279Z,12.90
2019-05-06T12:10:07.733Z,12.60
2019-05-06T12:12:37.591Z,12.30
2019-05-06T12:15:07.735Z,12.00
2019-05-06T12:17:37.491Z,11.80
2019-05-06T12:20:09.570Z,11.80
2019-05-06T12:22:42.518Z,12.00
2019-05-06T12:25:15.500Z,12.70
2019-05-06T12:27:47.161Z,13.50
2019-05-06T12:30:19.436Z,13.80
2019-05-06T12:33:15.143Z,13.80
2019-05-06T12:35:47.966Z,13.60
2019-05-06T12:38:30.197Z,13.10
2019-05-06T12:41:03.436Z,13.00
2019-05-06T12:43:46.856Z,12.90
2019-05-06T12:46:22.540Z,13.00
2019-05-06T12:48:52.363Z,13.20
2019-05-06T12:51:22.741Z,13.10
2019-05-06T12:53:52.995Z,13.30
2019-05-06T12:56:23.042Z,13.30
2019-05-06T12:58:52.758Z,13.20
2019-05-06T13:01:22.624Z,13.00
2019-05-06T13:03:52.681Z,12.80
2019-05-06T13:06:26.298Z,12.70
2019-05-06T13:09:01.017Z,12.70
2019-05-06T13:11:25.338Z,12.90
2019-05-06T13:14:00.445Z,13.10
2019-05-06T13:16:29.400Z,13.20
2019-05-06T13:18:59.259Z,13.20
2019-05-06T13:21:28.945Z,13.30
2019-05-06T13:24:04.617Z,13.40
2019-05-06T13:26:35.434Z,13.60
2019-05-06T13:29:12.985Z,13.70
2019-05-06T13:31:43.699Z,13.60
2019-05-06T13:34:18.099Z,13.60
2019-05-06T13:36:49.521Z,13.60
2019-05-06T13:39:19.271Z,13.50
2019-05-06T13:41:52.703Z,13.40
2019-05-06T13:44:22.898Z,13.10
2019-05-06T13:46:56.177Z,13.10
2019-05-06T13:49:52.198Z,13.20
2019-05-06T13:52:25.594Z,13.20
2019-05-06T13:54:55.416Z,13.30
2019-05-06T13:57:25.332Z,13.30
2019-05-06T13:59:55.177Z,13.40
2019-05-06T14:02:40.279Z,13.40
2019-05-06T14:05:12.125Z,13.50
2019-05-06T14:07:44.900Z,13.50
2019-05-06T14:10:17.648Z,13.60
2019-05-06T14:12:47.419Z,13.70
2019-05-06T14:15:17.363Z,13.60
2019-05-06T14:17:47.087Z,13.50
2019-05-06T14:20:17.076Z,13.30
2019-05-06T14:22:46.803Z,13.10
2019-05-06T14:25:44.550Z,13.00
2019-05-06T14:28:42.960Z,13.00
2019-05-06T14:31:25.876Z,12.90
2019-05-06T14:33:55.698Z,12.80
2019-05-06T14:36:27.484Z,12.70
2019-05-06T14:38:56.939Z,12.70
2019-05-06T14:41:28.227Z,12.80
2019-05-06T14:43:58.419Z,12.70
2019-05-06T14:46:52.171Z,12.60
2019-05-06T14:49:22.570Z,12.50
2019-05-06T14:51:55.181Z,12.50
2019-05-06T14:54:24.979Z,12.40
2019-05-06T14:56:58.556Z,12.30
2019-05-06T14:59:28.324Z,12.30
2019-05-06T15:01:58.148Z,12.40
2019-05-06T15:04:27.948Z,12.50
2019-05-06T15:06:57.722Z,12.60
2019-05-06T15:09:29.100Z,12.60
2019-05-06T15:11:59.090Z,12.60
2019-05-06T15:14:28.959Z,12.50
2019-05-06T15:16:58.840Z,12.40
2019-05-06T15:19:28.702Z,12.30
2019-05-06T15:22:02.223Z,12.20
2019-05-06T15:24:34.987Z,12.10
2019-05-06T15:27:04.882Z,12.10
2019-05-06T15:29:41.733Z,12.10
2019-05-06T15:32:24.719Z,12.10
2019-05-06T15:35:13.379Z,12.20
2019-05-06T15:38:07.797Z,12.20
2019-05-06T15:40:37.631Z,12.10
2019-05-06T15:43:07.358Z,12.00
2019-05-06T15:45:39.604Z,12.00
2019-05-06T15:48:09.499Z,11.90
2019-05-06T15:50:42.244Z,11.90
2019-05-06T15:53:12.583Z,11.90
2019-05-06T15:55:43.654Z,11.90
2019-05-06T15:58:17.623Z,11.80
2019-05-06T16:00:47.571Z,11.70
2019-05-06T16:03:17.391Z,11.70
2019-05-06T16:05:47.234Z,11.70
2019-05-06T16:08:17.280Z,11.70
2019-05-06T16:10:58.345Z,11.70
2019-05-06T16:13:24.077Z,11.70
2019-05-06T16:15:56.143Z,11.70
2019-05-06T16:18:25.859Z,11.70
2019-05-06T16:20:57.594Z,11.60
2019-05-06T16:23:36.916Z,11.70
2019-05-06T16:26:06.748Z,11.80
2019-05-06T16:28:47.065Z,11.80
2019-05-06T16:31:17.726Z,11.80
2019-05-06T16:33:47.883Z,11.90
2019-05-06T16:36:24.978Z,11.80
2019-05-06T16:38:57.631Z,11.70
2019-05-06T16:41:27.340Z,11.70
2019-05-06T16:43:57.208Z,11.70
2019-05-06T16:46:33.937Z,11.70
2019-05-06T16:49:02.381Z,11.70
2019-05-06T16:51:32.706Z,11.70
2019-05-06T16:54:03.873Z,11.70
2019-05-06T16:57:02.335Z,11.60
2019-05-06T16:59:33.421Z,11.60
2019-05-06T17:02:08.750Z,11.60
2019-05-06T17:04:46.470Z,11.70
2019-05-06T17:07:16.395Z,11.70
2019-05-06T17:09:46.219Z,11.70
2019-05-06T17:12:16.099Z,11.70
2019-05-06T17:14:45.918Z,11.70
2019-05-06T17:17:15.742Z,11.60
2019-05-06T17:19:45.598Z,11.50
2019-05-06T17:22:15.485Z,11.40
2019-05-06T17:24:48.440Z,11.30
2019-05-06T17:27:16.858Z,11.30
2019-05-06T17:29:58.182Z,11.20
2019-05-06T17:32:33.344Z,11.20
2019-05-06T17:35:02.999Z,11.20
2019-05-06T17:37:50.043Z,11.20
2019-05-06T17:40:22.964Z,11.20
2019-05-06T17:42:53.337Z,11.20
2019-05-06T17:46:03.721Z,11.10
2019-05-06T17:48:47.095Z,11.10
2019-05-06T17:51:18.665Z,11.00
2019-05-06T17:53:52.327Z,11.00
2019-05-06T17:56:22.329Z,11.00
2019-05-06T17:58:53.263Z,10.90
2019-05-06T18:01:33.072Z,10.90
2019-05-06T18:04:03.111Z,10.90
2019-05-06T18:06:33.538Z,10.80
2019-05-06T18:09:03.381Z,10.70
2019-05-06T18:11:33.369Z,10.60
2019-05-06T18:14:04.126Z,10.50
2019-05-06T18:16:34.137Z,10.40
2019-05-06T18:19:03.847Z,10.40
2019-05-06T18:21:33.855Z,10.30
2019-05-06T18:24:03.820Z,10.30
2019-05-06T18:26:33.826Z,10.30
2019-05-06T18:29:03.635Z,10.30
2019-05-06T18:31:33.805Z,10.20
2019-05-06T18:34:06.341Z,10.20
2019-05-06T18:36:35.183Z,10.20
2019-05-06T18:39:07.077Z,10.20
2019-05-06T18:41:37.132Z,10.20
2019-05-06T18:44:07.111Z,10.10
2019-05-06T18:46:36.835Z,10.10
2019-05-06T18:49:06.650Z,10.10
2019-05-06T18:51:36.430Z,10.10
2019-05-06T18:54:06.319Z,10.00
2019-05-06T18:56:36.071Z,10.00
2019-05-06T18:59:06.173Z,10.00
2019-05-06T19:01:36.913Z,10.00
2019-05-06T19:04:37.710Z,9.90
2019-05-06T19:07:12.912Z,9.90
2019-05-06T19:09:47.863Z,9.90
2019-05-06T19:12:30.062Z,9.80
2019-05-06T19:14:49.518Z,9.80
2019-05-06T19:17:19.233Z,9.80
2019-05-06T19:19:49.036Z,9.80
2019-05-06T19:22:19.024Z,9.80
2019-05-06T19:24:48.888Z,9.80
2019-05-06T19:27:18.713Z,9.80
2019-05-06T19:29:48.406Z,9.90
2019-05-06T19:32:18.163Z,9.80
2019-05-06T19:34:47.925Z,9.80
2019-05-06T19:37:17.705Z,9.70
2019-05-06T19:39:47.630Z,9.70
2019-05-06T19:42:19.174Z,9.70
2019-05-06T19:44:49.058Z,9.70
2019-05-06T19:47:19.415Z,9.60
2019-05-06T19:49:49.179Z,9.60
2019-05-06T19:52:19.015Z,9.60
2019-05-06T19:54:52.137Z,9.60
2019-05-06T19:57:24.938Z,9.50
2019-05-06T19:59:54.666Z,9.50
2019-05-06T20:02:27.145Z,9.40
2019-05-06T20:05:03.123Z,9.40
2019-05-06T20:07:42.946Z,9.40
2019-05-06T20:10:50.244Z,9.30
2019-05-06T20:13:22.729Z,9.30
2019-05-06T20:15:52.185Z,9.30
2019-05-06T20:18:21.894Z,9.20
2019-05-06T20:20:52.847Z,9.20
2019-05-06T20:23:23.279Z,9.20
2019-05-06T20:25:53.187Z,9.10
2019-05-06T20:28:22.950Z,9.10
2019-05-06T20:30:53.017Z,9.00
2019-05-06T20:33:22.829Z,9.00
2019-05-06T20:35:52.736Z,9.00
2019-05-06T20:38:23.205Z,9.00
2019-05-06T20:40:53.130Z,9.00
2019-05-06T20:43:23.999Z,9.00
2019-05-06T20:45:54.349Z,9.00
2019-05-06T20:48:24.121Z,8.90
2019-05-06T20:50:54.062Z,8.90
2019-05-06T20:53:23.750Z,8.90
2019-05-06T20:56:12.369Z,8.90
2019-05-06T20:58:42.275Z,8.90
2019-05-06T21:01:12.123Z,8.90
2019-05-06T21:03:42.469Z,8.90
2019-05-06T21:06:15.138Z,8.90
2019-05-06T21:08:44.974Z,8.90
2019-05-06T21:11:25.764Z,8.90
2019-05-06T21:13:46.262Z,8.90
2019-05-06T21:16:16.012Z,8.90
2019-05-06T21:18:45.761Z,8.80
2019-05-06T21:21:15.689Z,8.80
2019-05-06T21:23:45.542Z,8.80
2019-05-06T21:26:15.651Z,8.70
2019-05-06T21:28:46.450Z,8.70
2019-05-06T21:31:16.413Z,8.60
2019-05-06T21:33:46.186Z,8.60
2019-05-06T21:36:15.964Z,8.60
2019-05-06T21:38:45.751Z,8.60
2019-05-06T21:41:17.791Z,8.50
2019-05-06T21:43:49.967Z,8.50
2019-05-06T21:46:18.367Z,8.40
2019-05-06T21:48:48.148Z,8.40
2019-05-06T21:51:18.001Z,8.40
2019-05-06T21:53:47.774Z,8.40
2019-05-06T21:56:17.546Z,8.40
2019-05-06T21:58:47.334Z,8.40
2019-05-06T22:01:17.137Z,8.40
2019-05-06T22:03:46.967Z,8.40
2019-05-06T22:06:16.786Z,8.50
2019-05-06T22:08:46.606Z,8.50
2019-05-06T22:11:16.406Z,8.50
2019-05-06T22:13:57.889Z,8.50
2019-05-06T22:16:17.842Z,8.60
2019-05-06T22:18:47.655Z,8.60
2019-05-06T22:21:24.931Z,8.60
2019-05-06T22:24:05.395Z,8.50
2019-05-06T22:26:35.347Z,8.60
2019-05-06T22:29:05.101Z,8.50
2019-05-06T22:31:34.962Z,8.50
2019-05-06T22:34:04.730Z,8.50
2019-05-06T22:36:34.453Z,8.50
2019-05-06T22:39:05.531Z,8.50
2019-05-06T22:41:35.308Z,8.50
2019-05-06T22:44:13.361Z,8.50
2019-05-06T22:46:36.554Z,8.50
2019-05-06T22:49:06.254Z,8.50
2019-05-06T22:51:35.926Z,8.40
2019-05-06T22:54:05.790Z,8.40
2019-05-06T22:56:35.598Z,8.40
2019-05-06T22:59:05.879Z,8.40
2019-05-06T23:02:02.333Z,8.40
2019-05-06T23:04:33.283Z,8.40
2019-05-06T23:07:04.811Z,8.40
2019-05-06T23:09:34.686Z,8.50
2019-05-06T23:12:04.831Z,8.40
2019-05-06T23:14:37.190Z,8.40
2019-05-06T23:17:07.136Z,8.40
2019-05-06T23:19:36.926Z,8.30
2019-05-06T23:22:06.957Z,8.30
2019-05-06T23:24:36.791Z,8.30
2019-05-06T23:27:06.601Z,8.30
2019-05-06T23:29:36.446Z,8.30
2019-05-06T23:32:06.321Z,8.20
2019-05-06T23:34:36.134Z,8.20
2019-05-06T23:37:23.271Z,8.20
2019-05-06T23:40:37.637Z,8.20
2019-05-06T23:43:42.812Z,8.20
2019-05-06T23:46:52.826Z,8.10
2019-05-06T23:49:57.714Z,8.10
2019-05-06T23:53:03.774Z,8.00
2019-05-06T23:56:09.024Z,8.00
2019-05-06T23:58:38.787Z,8.00
